This is the latest recevied weather packets stored in our database for station/object W4BOD. If no packets are shown the sender has not sent any weather packets the latest 10 day(s).
| Time | Temp. | Humidity | Pressure | Rain* | Wind** | Luminosity | Snow |
|---|---|---|---|---|---|---|---|
| 1788022956 | 32.22° C | 64% | 1020.5 hPa | 0 mm | - | 848 W/m² | - |
| 1788022654 | 31.67° C | 62% | 1020.3 hPa | 0 mm | - | 844 W/m² | - |
| 1788022353 | 31.67° C | 62% | 1020.7 hPa | 0 mm | - | 840 W/m² | - |
| 1788022053 | 31.11° C | 67% | 1020.5 hPa | 0 mm | - | 838 W/m² | - |
| 1788021747 | 31.11° C | 67% | 1020.6 hPa | 0 mm | - | 831 W/m² | - |
| 1788021446 | 31.67° C | 65% | 1020.7 hPa | 0 mm | - | 825 W/m² | - |
| 1788021140 | 32.78° C | 63% | 1020.8 hPa | 0 mm | - | 821 W/m² | - |
| 1788020835 | 31.67° C | 63% | 1020.8 hPa | 0 mm | - | 814 W/m² | - |
| 1788020530 | 31.67° C | 64% | 1020.9 hPa | 0 mm | - | 810 W/m² | - |
| 1788020226 | 31.11° C | 64% | 1020.7 hPa | 0 mm | - | 802 W/m² | - |
| 1788019922 | 30.56° C | 66% | 1020.7 hPa | 0 mm | - | 794 W/m² | - |
| 1788019617 | 30° C | 68% | 1020.7 hPa | 0 mm | - | 785 W/m² | - |
| 1788019316 | 30° C | 70% | 1020.8 hPa | 0 mm | - | 775 W/m² | - |
| 1788019014 | 29.44° C | 71% | 1021 hPa | 0 mm | - | 769 W/m² | - |
| 1788018709 | 30° C | 73% | 1020.9 hPa | 0 mm | - | 756 W/m² | - |
| 1788018408 | 30° C | 70% | 1020.9 hPa | 0 mm | - | 745 W/m² | - |
| 1788018103 | 30° C | 72% | 1020.8 hPa | 0 mm | - | 735 W/m² | - |
| 1788017799 | 30.56° C | 67% | 1020.9 hPa | 0 mm | - | 722 W/m² | - |
| 1788017496 | 30° C | 69% | 1020.7 hPa | 0 mm | - | 711 W/m² | - |
| 1788017193 | 29.44° C | 70% | 1020.7 hPa | 0 mm | - | 700 W/m² | - |
| 1788016892 | 28.89° C | 72% | 1020.5 hPa | 0 mm | - | 691 W/m² | - |
| 1788016590 | 28.89° C | 73% | 1020.5 hPa | 0 mm | - | 678 W/m² | - |
| 1788016280 | 27.78° C | 77% | 1020.6 hPa | 0 mm | - | 664 W/m² | - |
| 1788015979 | 28.33° C | 74% | 1020.9 hPa | 0 mm | - | 650 W/m² | - |
| 1788015674 | 27.78° C | 75% | 1020.8 hPa | 0 mm | - | 637 W/m² | - |
* Rain latest hour (hover to see other rain measurements)
** Current wind speed in m/s (hover to see current wind gust speed)